Historique des mesures à Cassis (13260), France
Quotidien Résumé Juillet 16, 2017 Unités:  Métrique    US   Métrique/US
« Précédent (Jour)
Suivant (Jour) »
Quotidien Hebdomadaire Mensuel Annuel Période au choix
  Maximum: Minimum: Moyenne:
Température: TemperatureC °C 23.8 °C 27 °C
Point de rosée: DewpointC °C 11.1 °C 12.8 °C
Humidité: Humidity % 32 % 39 %
Vitesse du vent: 0 km/h 0 km/h 5.6 km/h
Rafales: 0 km/h - -
Vent:- - SE
Pression: PressurehPa hPa 1010.4 hPa -
Précipitations: 0.0 mm    
Historical Graphs
 
 
Mesures pour : Juillet 16, 2017
Heure Temperature Point de rosée Pression Vent Vitesse du vent Rafales Humidité Pluie (par heure) Conditions
TemperatureC °C DewpointC °C PressurehPa hPa Calm     Humidity % HourlyPrecipMM mm SoftwareType W/m2
00:11 26.1 °C 11.1 °C 1010.4 hPa ENE 2.9 km/h 2.9 km/h 39 % 0.0 mm open2300-1.11 W/m2
01:11 25.3 °C 11.1 °C 1011.4 hPa NE 5.1 km/h 5.1 km/h 41 % 0.0 mm open2300-1.11 W/m2
02:11 24.6 °C 11.2 °C 1011.7 hPa NW 8 km/h 8 km/h 43 % 0.0 mm open2300-1.11 W/m2
03:11 24.2 °C 12.2 °C 1011.7 hPa North 7.6 km/h 7.6 km/h 47 % 0.0 mm open2300-1.11 W/m2
04:11 23.9 °C 13.2 °C 1011.7 hPa NNE 5.6 km/h 5.6 km/h 51 % 0.0 mm open2300-1.11 W/m2
05:11 23.8 °C 12.8 °C 1012.4 hPa NW 10.3 km/h 10.3 km/h 50 % 0.0 mm open2300-1.11 W/m2
06:11 23.8 °C 12.4 °C 1012.8 hPa Calm   5.1 km/h 49 % 0.0 mm open2300-1.11 W/m2
07:11 23.8 °C 11.8 °C 1013.1 hPa NNE 2.3 km/h 2.3 km/h 47 % 0.0 mm open2300-1.11 W/m2
08:11 26.8 °C 12.8 °C 1013.8 hPa NW 13.2 km/h 14 km/h 42 % 0.0 mm open2300-1.11 W/m2
09:11 26.9 °C 12.2 °C 1014.4 hPa NNE 6.4 km/h 6.4 km/h 40 % 0.0 mm open2300-1.11 W/m2
10:11 28.1 °C 12.8 °C 1014.4 hPa Calm   8.9 km/h 39 % 0.0 mm open2300-1.11 W/m2
11:11 32.0 °C 14.5 °C 1014.8 hPa SSE 10.9 km/h 10.9 km/h 35 % 0.0 mm open2300-1.11 W/m2
12:11 33.7 °C 14.7 °C 1015.1 hPa SE 7.6 km/h 11.6 km/h 32 % 0.0 mm open2300-1.11 W/m2
13:11 33.3 °C 15.7 °C 1015.5 hPa ESE 3.4 km/h 8.9 km/h 35 % 0.0 mm open2300-1.11 W/m2
14:11 33.5 °C 14.9 °C 1015.1 hPa SSW 5.1 km/h 8 km/h 33 % 0.0 mm open2300-1.11 W/m2
15:11 33.1 °C 15.1 °C 1015.5 hPa South 8.9 km/h 9.8 km/h 34 % 0.0 mm open2300-1.11 W/m2
16:11 32.5 °C 14.5 °C 1015.5 hPa SSE 7.6 km/h 7.6 km/h 34 % 0.0 mm open2300-1.11 W/m2
17:11 31.8 °C 13.9 °C 1015.1 hPa ESE 15 km/h 15 km/h 34 % 0.0 mm open2300-1.11 W/m2
18:11 30.9 °C 13.1 °C 1014.8 hPa South 5.6 km/h 5.6 km/h 34 % 0.0 mm open2300-1.11 W/m2
19:11 29.9 °C 13.2 °C 1014.8 hPa SSW 3.4 km/h 3.4 km/h 36 % 0.0 mm open2300-1.11 W/m2
20:11 28.8 °C 13.9 °C 1015.1 hPa WSW 8.9 km/h 8.9 km/h 40 % 0.0 mm open2300-1.11 W/m2
21:11 27.3 °C 14.3 °C 1015.1 hPa Calm   2.9 km/h 45 % 0.0 mm open2300-1.11 W/m2
22:11 26.0 °C 14.1 °C 1015.5 hPa Calm     48 % 0.0 mm open2300-1.11 W/m2
23:11 24.9 °C 14.1 °C 1015.8 hPa North 2.3 km/h 2.3 km/h 51 % 0.0 mm open2300-1.11 W/m2
Observations météo à CASSIS
WU-History script by Weather Underground - 1 mb